createdAt,value
2022-07-28T00:02:22.348Z,3.00
2022-07-28T00:06:24.354Z,3.50
2022-07-28T00:10:26.361Z,3.15
2022-07-28T00:14:28.382Z,3.20
2022-07-28T00:18:30.321Z,3.40
2022-07-28T00:22:32.257Z,2.80
2022-07-28T00:26:34.482Z,3.10
2022-07-28T00:30:36.489Z,3.20
2022-07-28T00:34:38.681Z,2.95
2022-07-28T00:38:44.025Z,3.15
2022-07-28T00:42:46.392Z,3.28
2022-07-28T00:46:49.110Z,3.17
2022-07-28T00:50:52.484Z,3.50
2022-07-28T00:54:54.494Z,4.85
2022-07-28T00:58:56.434Z,4.45
2022-07-28T01:02:58.828Z,3.60
2022-07-28T01:07:15.391Z,6.05
2022-07-28T01:11:46.940Z,4.70
2022-07-28T01:15:58.499Z,4.32
2022-07-28T01:20:22.805Z,3.10
2022-07-28T01:24:46.110Z,3.38
2022-07-28T01:28:51.052Z,3.38
2022-07-28T01:33:06.789Z,3.05
2022-07-28T01:37:17.307Z,3.00
2022-07-28T01:41:22.445Z,3.40
2022-07-28T01:45:26.309Z,4.47
2022-07-28T01:49:29.750Z,3.63
2022-07-28T01:53:37.540Z,3.85
2022-07-28T01:57:41.615Z,4.07
2022-07-28T02:01:45.815Z,3.10
2022-07-28T02:05:50.494Z,2.90
2022-07-28T02:09:54.231Z,3.10
2022-07-28T02:13:58.158Z,3.72
2022-07-28T02:18:00.762Z,3.00
2022-07-28T02:22:05.001Z,3.22
2022-07-28T02:26:10.990Z,3.05
2022-07-28T02:30:16.755Z,2.95
2022-07-28T02:34:27.622Z,2.88
2022-07-28T02:38:39.145Z,3.50
2022-07-28T02:42:42.207Z,3.38
2022-07-28T02:46:46.889Z,3.25
2022-07-28T02:50:50.018Z,3.40
2022-07-28T02:54:52.658Z,3.25
2022-07-28T02:58:55.387Z,3.35
2022-07-28T03:02:57.825Z,3.17
2022-07-28T03:07:00.314Z,3.50
2022-07-28T03:11:09.841Z,3.38
2022-07-28T03:15:12.076Z,3.92
2022-07-28T03:19:14.051Z,3.50
2022-07-28T03:23:16.928Z,3.03
2022-07-28T03:27:27.596Z,3.38
2022-07-28T03:31:31.831Z,3.58
2022-07-28T03:35:36.912Z,4.18
2022-07-28T03:39:46.980Z,5.13
2022-07-28T03:43:50.328Z,4.45
2022-07-28T03:47:54.168Z,2.95
2022-07-28T03:51:56.025Z,3.03
2022-07-28T03:55:58.232Z,3.10
2022-07-28T04:00:00.169Z,2.97
2022-07-28T04:04:02.090Z,2.90
2022-07-28T04:08:04.197Z,3.20
2022-07-28T04:12:06.402Z,3.33
2022-07-28T04:16:08.475Z,3.30
2022-07-28T04:20:11.090Z,3.20
2022-07-28T04:24:13.188Z,2.97
2022-07-28T04:28:15.836Z,3.10
2022-07-28T04:32:17.771Z,3.35
2022-07-28T04:36:19.799Z,3.30
2022-07-28T04:40:22.106Z,3.67
2022-07-28T04:44:24.054Z,3.20
2022-07-28T04:48:26.032Z,3.15
2022-07-28T04:52:27.966Z,3.83
2022-07-28T04:56:29.832Z,4.50
2022-07-28T05:00:31.950Z,4.90
2022-07-28T05:04:33.933Z,6.20
2022-07-28T05:08:37.130Z,5.25
2022-07-28T05:12:39.040Z,4.82
2022-07-28T05:16:41.018Z,4.00
2022-07-28T05:20:43.716Z,4.13
2022-07-28T05:24:45.666Z,4.25
2022-07-28T05:28:47.731Z,4.30
2022-07-28T05:32:50.728Z,4.00
2022-07-28T05:36:52.628Z,4.00
2022-07-28T05:40:54.896Z,3.75
2022-07-28T05:44:56.794Z,3.90
2022-07-28T05:48:58.964Z,4.18
2022-07-28T05:53:01.014Z,3.90
2022-07-28T05:57:02.936Z,4.18
2022-07-28T06:01:05.058Z,3.92
2022-07-28T06:05:07.445Z,3.55
2022-07-28T06:09:09.397Z,3.25
2022-07-28T06:13:14.705Z,3.60
2022-07-28T06:17:16.692Z,3.47
2022-07-28T06:21:18.870Z,3.70
2022-07-28T06:25:25.783Z,3.38
2022-07-28T06:29:27.707Z,3.25
2022-07-28T06:33:29.754Z,3.08
2022-07-28T06:37:31.724Z,3.05
2022-07-28T06:41:33.606Z,3.78
2022-07-28T06:45:36.434Z,4.10
2022-07-28T06:49:38.353Z,3.70
2022-07-28T06:53:40.265Z,3.40
2022-07-28T06:57:43.621Z,3.15
2022-07-28T07:01:45.661Z,3.28
2022-07-28T07:05:50.091Z,3.42
2022-07-28T07:09:54.334Z,3.70
2022-07-28T07:13:56.287Z,3.67
2022-07-28T07:17:58.310Z,3.70
2022-07-28T07:22:00.212Z,3.60
2022-07-28T07:26:03.214Z,3.25
2022-07-28T07:30:07.143Z,3.28
2022-07-28T07:34:09.301Z,2.80
2022-07-28T07:38:11.256Z,3.50
2022-07-28T07:42:13.279Z,2.95
2022-07-28T07:46:15.993Z,3.13
2022-07-28T07:50:19.268Z,3.08
2022-07-28T07:54:21.945Z,3.17
2022-07-28T07:58:23.895Z,3.10
2022-07-28T08:02:25.793Z,2.95
2022-07-28T08:06:28.004Z,3.00
2022-07-28T08:10:31.212Z,2.70
2022-07-28T08:14:33.175Z,2.65
2022-07-28T08:18:35.086Z,2.58
2022-07-28T08:22:51.009Z,2.90
2022-07-28T08:26:53.021Z,2.58
2022-07-28T08:30:55.058Z,2.33
2022-07-28T08:35:22.541Z,2.50
2022-07-28T08:39:18.888Z,2.50
2022-07-28T08:43:34.066Z,2.70
2022-07-28T08:47:45.877Z,2.97
2022-07-28T08:51:56.074Z,2.13
2022-07-28T08:56:05.958Z,2.40
2022-07-28T09:00:12.268Z,3.03
2022-07-28T09:04:16.065Z,2.47
2022-07-28T09:08:21.682Z,2.03
2022-07-28T09:12:27.181Z,2.05
2022-07-28T09:16:30.065Z,1.70
2022-07-28T09:20:32.110Z,1.80
2022-07-28T09:24:42.243Z,2.25
2022-07-28T09:28:58.319Z,2.17
2022-07-28T09:33:42.225Z,2.77
2022-07-28T09:37:46.001Z,2.38
2022-07-28T09:41:49.428Z,2.58
2022-07-28T09:46:03.999Z,2.45
2022-07-28T09:50:07.324Z,2.10
2022-07-28T09:54:18.774Z,1.90
2022-07-28T09:58:21.228Z,2.20
2022-07-28T10:02:25.451Z,2.17
2022-07-28T10:06:34.057Z,2.53
2022-07-28T10:10:35.963Z,2.60
2022-07-28T10:14:37.875Z,1.85
2022-07-28T10:18:42.954Z,2.00
2022-07-28T10:22:45.138Z,2.08
2022-07-28T10:26:48.267Z,2.20
2022-07-28T10:30:53.755Z,1.65
2022-07-28T10:35:09.157Z,1.60
2022-07-28T10:39:18.862Z,1.70
2022-07-28T10:43:22.092Z,1.42
2022-07-28T10:47:25.513Z,1.65
2022-07-28T10:52:01.186Z,1.50
2022-07-28T10:56:12.774Z,1.38
2022-07-28T11:00:26.459Z,1.58
2022-07-28T11:04:48.121Z,1.73
2022-07-28T11:08:50.756Z,2.17
2022-07-28T11:12:55.867Z,1.63
2022-07-28T11:17:10.695Z,1.85
2022-07-28T11:21:16.510Z,1.33
2022-07-28T11:25:22.433Z,1.63
2022-07-28T11:29:24.824Z,1.40
2022-07-28T11:33:56.733Z,1.80
2022-07-28T11:38:01.612Z,1.98
2022-07-28T11:42:34.595Z,2.20
2022-07-28T11:46:37.508Z,1.88
2022-07-28T11:50:41.270Z,1.70
2022-07-28T11:54:47.860Z,2.47
2022-07-28T12:03:05.545Z,2.05
2022-07-28T12:07:10.041Z,1.40
2022-07-28T12:11:11.985Z,1.75
2022-07-28T12:15:17.457Z,1.77
2022-07-28T12:19:20.266Z,1.83
2022-07-28T12:23:38.813Z,1.95
2022-07-28T12:27:48.021Z,1.80
2022-07-28T12:32:02.153Z,2.10
2022-07-28T12:36:05.851Z,1.65
2022-07-28T12:40:10.653Z,1.60
2022-07-28T12:44:12.906Z,1.92
2022-07-28T12:48:17.687Z,1.83
2022-07-28T12:52:22.033Z,1.65
2022-07-28T12:56:24.248Z,1.77
2022-07-28T13:00:32.174Z,1.98
2022-07-28T13:04:41.854Z,1.88
2022-07-28T13:08:45.762Z,1.38
2022-07-28T13:13:00.839Z,1.20
2022-07-28T13:17:02.797Z,2.05
2022-07-28T13:21:04.807Z,1.90
2022-07-28T13:25:08.064Z,1.70
2022-07-28T13:29:12.813Z,1.48
2022-07-28T13:33:15.055Z,1.52
2022-07-28T13:37:17.286Z,1.30
2022-07-28T13:41:19.566Z,1.88
2022-07-28T13:45:22.173Z,1.38
2022-07-28T13:51:18.397Z,1.60
2022-07-28T13:55:24.219Z,1.75
2022-07-28T13:59:29.055Z,1.73
2022-07-28T14:03:55.683Z,1.80
2022-07-28T14:07:54.410Z,2.00
2022-07-28T14:11:56.315Z,2.30
2022-07-28T14:16:02.350Z,1.85
2022-07-28T14:20:07.663Z,2.15
2022-07-28T14:24:09.683Z,2.05
2022-07-28T14:28:11.705Z,2.20
2022-07-28T14:32:13.629Z,2.03
2022-07-28T14:36:17.446Z,2.30
2022-07-28T14:40:19.430Z,2.33
2022-07-28T14:44:24.059Z,2.45
2022-07-28T14:48:26.763Z,2.20
2022-07-28T14:52:29.520Z,2.63
2022-07-28T14:56:31.992Z,2.28
2022-07-28T15:00:33.828Z,2.10
2022-07-28T15:04:35.727Z,2.30
2022-07-28T15:08:37.645Z,2.58
2022-07-28T15:12:39.581Z,2.75
2022-07-28T15:16:41.801Z,2.42
2022-07-28T15:20:43.871Z,2.00
2022-07-28T15:24:46.117Z,2.33
2022-07-28T15:28:48.666Z,2.30
2022-07-28T15:32:57.099Z,2.38
2022-07-28T15:37:01.004Z,2.50
2022-07-28T15:41:03.339Z,2.45
2022-07-28T15:45:05.811Z,2.38
2022-07-28T15:49:09.254Z,2.40
2022-07-28T15:53:11.682Z,2.50
2022-07-28T15:57:14.207Z,2.33
2022-07-28T16:01:16.149Z,2.30
2022-07-28T16:05:18.088Z,2.55
2022-07-28T16:09:20.103Z,2.42
2022-07-28T16:13:33.348Z,2.28
2022-07-28T16:17:39.194Z,2.50
2022-07-28T16:21:41.121Z,2.65
2022-07-28T16:25:45.090Z,2.40
2022-07-28T16:29:49.489Z,2.30
2022-07-28T16:33:51.559Z,2.38
2022-07-28T16:37:53.494Z,2.42
2022-07-28T16:41:55.391Z,2.50
2022-07-28T16:45:59.581Z,2.80
2022-07-28T16:50:01.803Z,2.90
2022-07-28T16:54:03.874Z,2.85
2022-07-28T16:58:05.762Z,4.00
2022-07-28T17:02:08.048Z,2.92
2022-07-28T17:06:10.894Z,2.75
2022-07-28T17:10:14.594Z,2.72
2022-07-28T17:14:19.022Z,2.83
2022-07-28T17:18:21.053Z,2.70
2022-07-28T17:22:23.095Z,2.92
2022-07-28T17:30:47.522Z,2.88
2022-07-28T17:34:49.557Z,3.72
2022-07-28T17:38:51.518Z,2.90
2022-07-28T17:42:53.499Z,3.20
2022-07-28T17:46:55.733Z,3.67
2022-07-28T17:50:58.160Z,3.22
2022-07-28T17:55:19.106Z,3.58
2022-07-28T17:59:26.714Z,3.55
2022-07-28T18:03:59.387Z,3.55
2022-07-28T18:08:02.472Z,3.40
2022-07-28T18:12:04.581Z,3.40
2022-07-28T18:16:07.200Z,3.67
2022-07-28T18:20:09.638Z,3.28
2022-07-28T18:24:12.543Z,3.35
2022-07-28T18:28:17.034Z,3.72
2022-07-28T18:32:18.977Z,3.40
2022-07-28T18:36:20.873Z,3.33
2022-07-28T18:40:23.939Z,3.38
2022-07-28T18:44:25.820Z,3.50
2022-07-28T18:48:27.740Z,3.53
2022-07-28T18:52:29.648Z,3.47
2022-07-28T18:56:31.544Z,3.95
2022-07-28T19:00:33.839Z,3.63
2022-07-28T19:04:35.788Z,3.65
2022-07-28T19:08:37.702Z,3.55
2022-07-28T19:12:39.658Z,3.72
2022-07-28T19:16:41.579Z,3.17
2022-07-28T19:20:46.487Z,3.22
2022-07-28T19:24:48.352Z,3.80
2022-07-28T19:28:50.569Z,4.13
2022-07-28T19:32:52.445Z,3.83
2022-07-28T19:36:54.893Z,4.30
2022-07-28T19:40:56.763Z,4.05
2022-07-28T19:44:58.659Z,3.10
2022-07-28T19:49:00.631Z,1.02
2022-07-28T19:53:02.999Z,0.77
2022-07-28T19:57:09.403Z,0.80
2022-07-28T20:01:14.418Z,1.10
2022-07-28T20:05:16.641Z,1.30
2022-07-28T20:09:20.305Z,1.30
2022-07-28T20:13:22.469Z,1.65
2022-07-28T20:17:37.582Z,1.38
2022-07-28T20:21:40.734Z,1.50
2022-07-28T20:25:43.446Z,1.38
2022-07-28T20:29:45.376Z,1.73
2022-07-28T20:33:47.487Z,1.50
2022-07-28T20:37:49.406Z,1.33
2022-07-28T20:41:51.373Z,1.50
2022-07-28T20:45:53.365Z,1.70
2022-07-28T20:49:55.470Z,1.90
2022-07-28T20:53:57.493Z,1.60
2022-07-28T20:57:59.391Z,1.50
2022-07-28T21:02:02.424Z,1.88
2022-07-28T21:06:04.502Z,1.85
2022-07-28T21:10:07.419Z,1.70
2022-07-28T21:14:09.298Z,1.40
2022-07-28T21:18:11.304Z,1.58
2022-07-28T21:22:13.234Z,1.50
2022-07-28T21:26:15.942Z,1.85
2022-07-28T21:30:17.889Z,1.80
2022-07-28T21:34:20.929Z,1.42
2022-07-28T21:38:23.166Z,1.40
2022-07-28T21:42:25.085Z,1.55
2022-07-28T21:46:27.061Z,1.58
2022-07-28T21:50:28.994Z,1.70
2022-07-28T21:54:30.944Z,1.85
2022-07-28T21:58:32.851Z,1.77
2022-07-28T22:02:36.830Z,1.85
2022-07-28T22:06:38.901Z,1.63
2022-07-28T22:10:40.890Z,1.55
2022-07-28T22:14:42.796Z,1.70
2022-07-28T22:18:44.720Z,1.88
2022-07-28T22:22:46.642Z,1.70
2022-07-28T22:26:48.556Z,1.65
2022-07-28T22:30:50.499Z,1.80
2022-07-28T22:34:52.694Z,2.15
2022-07-28T22:38:55.547Z,2.33
2022-07-28T22:42:57.424Z,2.45
2022-07-28T22:46:59.580Z,2.38
2022-07-28T22:51:01.557Z,2.30
2022-07-28T22:55:04.232Z,1.92
2022-07-28T22:59:06.617Z,2.13
2022-07-28T23:03:12.946Z,2.22
2022-07-28T23:07:15.853Z,2.08
2022-07-28T23:11:17.782Z,2.10
2022-07-28T23:15:19.784Z,2.00
2022-07-28T23:19:21.680Z,2.30
2022-07-28T23:23:23.623Z,2.03
2022-07-28T23:27:25.555Z,2.30
2022-07-28T23:31:27.501Z,1.88
2022-07-28T23:35:29.508Z,2.60
2022-07-28T23:39:31.432Z,2.28
2022-07-28T23:43:33.309Z,2.25
2022-07-28T23:47:35.323Z,2.08
2022-07-28T23:51:48.187Z,2.03
2022-07-28T23:55:50.706Z,1.60
2022-07-28T23:59:53.302Z,2.05
